createdAt,value
2022-12-03T00:02:20.760Z,5.00
2022-12-03T00:04:47.633Z,9.05
2022-12-03T00:07:14.401Z,5.93
2022-12-03T00:09:41.259Z,6.40
2022-12-03T00:12:08.025Z,5.90
2022-12-03T00:14:36.163Z,6.80
2022-12-03T00:17:05.578Z,8.02
2022-12-03T00:19:32.345Z,5.15
2022-12-03T00:21:59.100Z,5.88
2022-12-03T00:24:25.832Z,8.68
2022-12-03T00:26:52.535Z,6.53
2022-12-03T00:29:19.282Z,9.45
2022-12-03T00:31:46.053Z,8.60
2022-12-03T00:34:12.866Z,8.35
2022-12-03T00:36:40.831Z,6.47
2022-12-03T00:39:07.646Z,8.80
2022-12-03T00:41:34.375Z,8.98
2022-12-03T00:44:01.409Z,12.57
2022-12-03T00:46:28.201Z,13.38
2022-12-03T00:48:54.983Z,13.77
2022-12-03T00:51:21.762Z,12.07
2022-12-03T00:53:48.606Z,12.75
2022-12-03T00:56:15.651Z,9.15
2022-12-03T00:58:42.431Z,11.80
2022-12-03T01:01:09.203Z,13.35
2022-12-03T01:03:36.067Z,10.65
2022-12-03T01:06:03.108Z,9.80
2022-12-03T01:08:29.880Z,11.73
2022-12-03T01:10:56.588Z,10.65
2022-12-03T01:13:23.366Z,12.15
2022-12-03T01:15:50.984Z,11.52
2022-12-03T01:18:17.900Z,11.85
2022-12-03T01:20:44.763Z,10.10
2022-12-03T01:23:13.100Z,10.48
2022-12-03T01:25:39.919Z,10.57
2022-12-03T01:28:06.698Z,12.00
2022-12-03T01:30:53.456Z,11.68
2022-12-03T01:33:20.237Z,11.75
2022-12-03T01:35:47.012Z,11.18
2022-12-03T01:38:13.725Z,8.65
2022-12-03T01:40:40.466Z,11.63
2022-12-03T01:43:07.174Z,10.23
2022-12-03T01:45:33.956Z,10.27
2022-12-03T01:48:00.809Z,11.35
2022-12-03T01:50:30.911Z,10.68
2022-12-03T01:53:00.771Z,12.90
2022-12-03T01:55:28.059Z,12.23
2022-12-03T01:57:57.803Z,10.05
2022-12-03T02:00:29.534Z,10.50
2022-12-03T02:02:59.776Z,11.32
2022-12-03T02:05:31.287Z,12.48
2022-12-03T02:07:59.566Z,10.13
2022-12-03T02:10:29.478Z,16.20
2022-12-03T02:12:56.161Z,11.65
2022-12-03T02:15:23.166Z,12.65
2022-12-03T02:17:51.115Z,12.98
2022-12-03T02:20:18.144Z,13.82
2022-12-03T02:23:10.493Z,8.90
2022-12-03T02:25:37.565Z,12.00
2022-12-03T02:28:05.871Z,10.35
2022-12-03T02:30:32.854Z,11.15
2022-12-03T02:32:59.888Z,12.75
2022-12-03T02:35:29.002Z,11.07
2022-12-03T02:38:20.835Z,8.88
2022-12-03T02:40:50.236Z,11.40
2022-12-03T02:43:17.851Z,11.18
2022-12-03T02:45:46.751Z,13.57
2022-12-03T02:48:16.700Z,13.57
2022-12-03T02:50:49.217Z,14.30
2022-12-03T02:53:19.812Z,15.00
2022-12-03T02:55:46.865Z,13.75
2022-12-03T02:58:14.449Z,13.93
2022-12-03T03:00:42.507Z,13.38
2022-12-03T03:03:09.494Z,13.25
2022-12-03T03:05:37.735Z,12.75
2022-12-03T03:08:05.205Z,12.23
2022-12-03T03:10:33.857Z,12.50
2022-12-03T03:13:02.991Z,13.52
2022-12-03T03:15:29.781Z,12.98
2022-12-03T03:17:56.467Z,10.75
2022-12-03T03:20:23.238Z,11.07
2022-12-03T03:22:50.006Z,9.65
2022-12-03T03:25:20.684Z,11.35
2022-12-03T03:27:47.449Z,8.85
2022-12-03T03:30:15.237Z,12.10
2022-12-03T03:32:42.687Z,8.32
2022-12-03T03:35:10.186Z,9.80
2022-12-03T03:37:37.052Z,12.45
2022-12-03T03:40:04.157Z,10.80
2022-12-03T03:42:30.948Z,11.23
2022-12-03T03:44:58.431Z,10.50
2022-12-03T03:47:25.781Z,9.75
2022-12-03T03:49:53.112Z,9.57
2022-12-03T03:52:20.026Z,10.82
2022-12-03T03:54:47.253Z,9.55
2022-12-03T03:57:14.412Z,9.75
2022-12-03T03:59:41.321Z,10.43
2022-12-03T04:02:21.857Z,9.57
2022-12-03T04:04:49.167Z,10.40
2022-12-03T04:07:16.333Z,9.43
2022-12-03T04:09:43.715Z,7.57
2022-12-03T04:12:31.058Z,9.02
2022-12-03T04:14:58.521Z,7.05
2022-12-03T04:17:25.421Z,9.05
2022-12-03T04:19:52.163Z,6.88
2022-12-03T04:22:37.903Z,9.05
2022-12-03T04:25:24.115Z,7.68
2022-12-03T04:28:11.715Z,7.68
2022-12-03T04:30:38.627Z,8.10
2022-12-03T04:33:24.003Z,5.85
2022-12-03T04:35:50.804Z,6.85
2022-12-03T04:38:17.687Z,9.18
2022-12-03T04:41:04.157Z,9.07
2022-12-03T04:43:33.334Z,7.57
2022-12-03T04:46:01.196Z,5.32
2022-12-03T04:48:29.728Z,5.82
2022-12-03T04:50:56.428Z,6.80
2022-12-03T04:53:23.174Z,8.63
2022-12-03T04:55:49.900Z,9.48
2022-12-03T04:58:16.755Z,8.27
2022-12-03T05:00:43.542Z,5.60
2022-12-03T05:03:10.315Z,5.55
2022-12-03T05:05:37.077Z,8.32
2022-12-03T05:08:03.940Z,7.68
2022-12-03T05:10:30.767Z,7.00
2022-12-03T05:12:57.572Z,8.73
2022-12-03T05:15:24.364Z,4.70
2022-12-03T05:17:51.035Z,6.95
2022-12-03T05:20:36.422Z,6.78
2022-12-03T05:23:03.207Z,7.45
2022-12-03T05:25:29.925Z,4.57
2022-12-03T05:27:56.719Z,8.10
2022-12-03T05:30:23.608Z,6.07
2022-12-03T05:32:50.441Z,5.47
2022-12-03T05:35:17.452Z,6.63
2022-12-03T05:37:44.286Z,7.93
2022-12-03T05:40:11.815Z,6.25
2022-12-03T05:42:54.164Z,6.20
2022-12-03T05:45:25.335Z,6.82
2022-12-03T05:47:53.306Z,6.63
2022-12-03T05:50:25.325Z,6.85
2022-12-03T05:52:54.695Z,7.45
2022-12-03T05:55:21.672Z,5.75
2022-12-03T05:57:48.484Z,6.18
2022-12-03T06:00:18.333Z,7.47
2022-12-03T06:02:45.489Z,6.72
2022-12-03T06:05:13.768Z,8.02
2022-12-03T06:07:41.007Z,6.25
2022-12-03T06:10:10.478Z,7.45
2022-12-03T06:12:37.330Z,8.15
2022-12-03T06:15:04.664Z,7.07
2022-12-03T06:17:31.761Z,5.43
2022-12-03T06:19:58.505Z,5.93
2022-12-03T06:22:25.317Z,7.43
2022-12-03T06:24:52.500Z,6.55
2022-12-03T06:27:19.502Z,6.68
2022-12-03T06:29:46.338Z,5.05
2022-12-03T06:32:13.114Z,5.55
2022-12-03T06:34:40.094Z,7.38
2022-12-03T06:37:06.897Z,5.80
2022-12-03T06:39:33.643Z,7.10
2022-12-03T06:42:01.670Z,6.30
2022-12-03T06:44:28.618Z,7.68
2022-12-03T06:46:55.429Z,7.22
2022-12-03T06:49:22.226Z,6.78
2022-12-03T06:51:48.996Z,5.97
2022-12-03T06:54:15.764Z,7.43
2022-12-03T06:56:45.459Z,6.38
2022-12-03T06:59:12.783Z,6.55
2022-12-03T07:01:39.854Z,6.40
2022-12-03T07:04:06.665Z,4.45
2022-12-03T07:06:33.429Z,4.60
2022-12-03T07:09:00.199Z,5.40
2022-12-03T07:11:40.056Z,4.63
2022-12-03T07:14:08.085Z,6.22
2022-12-03T07:16:35.575Z,5.47
2022-12-03T07:19:02.923Z,3.42
2022-12-03T07:21:29.839Z,5.07
2022-12-03T07:23:56.647Z,6.80
2022-12-03T07:26:23.492Z,3.95
2022-12-03T07:28:50.334Z,5.97
2022-12-03T07:31:17.179Z,4.53
2022-12-03T07:33:43.992Z,6.53
2022-12-03T07:36:10.825Z,4.90
2022-12-03T07:38:37.826Z,4.82
2022-12-03T07:41:04.614Z,6.20
2022-12-03T07:43:31.625Z,5.38
2022-12-03T07:45:58.377Z,4.57
2022-12-03T07:48:25.112Z,8.10
2022-12-03T07:50:51.970Z,7.43
2022-12-03T07:53:18.752Z,4.95
2022-12-03T07:55:45.544Z,4.28
2022-12-03T07:58:12.272Z,6.13
2022-12-03T08:00:39.231Z,6.47
2022-12-03T08:03:06.132Z,5.07
2022-12-03T08:08:18.080Z,3.67
2022-12-03T08:10:44.892Z,4.15
2022-12-03T08:13:15.023Z,5.18
2022-12-03T08:15:42.351Z,5.32
2022-12-03T08:18:18.301Z,3.92
2022-12-03T08:20:48.463Z,3.17
2022-12-03T08:23:20.459Z,4.22
2022-12-03T08:25:48.132Z,3.78
2022-12-03T08:28:23.054Z,3.70
2022-12-03T08:31:13.188Z,3.80
2022-12-03T08:33:40.369Z,3.85
2022-12-03T08:36:17.000Z,5.53
2022-12-03T08:38:56.148Z,9.23
2022-12-03T08:41:42.238Z,6.13
2022-12-03T08:44:24.323Z,5.28
2022-12-03T08:47:02.541Z,6.05
2022-12-03T08:49:29.364Z,4.25
2022-12-03T08:52:01.277Z,6.95
2022-12-03T08:54:28.163Z,5.88
2022-12-03T08:56:55.033Z,4.60
2022-12-03T08:59:27.006Z,5.65
2022-12-03T09:01:55.115Z,6.43
2022-12-03T09:04:45.867Z,5.78
2022-12-03T09:07:12.737Z,6.32
2022-12-03T09:09:39.463Z,7.15
2022-12-03T09:12:06.477Z,5.32
2022-12-03T09:14:33.314Z,5.97
2022-12-03T09:17:00.201Z,5.97
2022-12-03T09:19:27.942Z,4.13
2022-12-03T09:21:55.054Z,6.43
2022-12-03T09:24:21.869Z,5.22
2022-12-03T09:26:49.146Z,6.72
2022-12-03T09:29:15.922Z,4.63
2022-12-03T09:31:42.812Z,5.25
2022-12-03T09:34:11.190Z,7.60
2022-12-03T09:36:38.117Z,5.22
2022-12-03T09:39:05.404Z,8.38
2022-12-03T09:41:32.431Z,10.02
2022-12-03T09:44:07.784Z,6.47
2022-12-03T09:46:38.825Z,5.88
2022-12-03T09:49:12.248Z,4.50
2022-12-03T09:51:42.522Z,5.53
2022-12-03T09:54:26.176Z,5.45
2022-12-03T09:56:54.631Z,7.75
2022-12-03T09:59:23.154Z,5.40
2022-12-03T10:01:50.111Z,5.32
2022-12-03T10:04:17.762Z,4.55
2022-12-03T10:06:46.225Z,6.80
2022-12-03T10:09:17.286Z,7.93
2022-12-03T10:11:44.174Z,5.38
2022-12-03T10:14:12.516Z,4.50
2022-12-03T10:16:40.582Z,4.75
2022-12-03T10:19:09.887Z,4.07
2022-12-03T10:21:37.653Z,4.93
2022-12-03T10:24:23.066Z,4.80
2022-12-03T10:26:51.661Z,6.00
2022-12-03T10:31:57.825Z,5.90
2022-12-03T10:34:35.103Z,5.32
2022-12-03T10:37:17.459Z,4.43
2022-12-03T10:40:13.297Z,5.18
2022-12-03T10:42:41.044Z,5.50
2022-12-03T10:45:17.988Z,4.80
2022-12-03T10:48:02.963Z,4.93
2022-12-03T10:50:29.904Z,5.60
2022-12-03T10:52:56.701Z,5.63
2022-12-03T10:55:23.792Z,7.18
2022-12-03T10:57:50.600Z,6.43
2022-12-03T11:00:19.096Z,6.72
2022-12-03T11:05:26.734Z,5.55
2022-12-03T11:07:53.748Z,8.50
2022-12-03T11:10:21.004Z,5.78
2022-12-03T11:13:25.399Z,6.82
2022-12-03T11:15:53.168Z,8.15
2022-12-03T11:18:38.382Z,8.57
2022-12-03T11:21:11.182Z,8.70
2022-12-03T11:23:47.065Z,8.52
2022-12-03T11:26:19.924Z,8.10
2022-12-03T11:28:46.791Z,5.95
2022-12-03T11:31:42.908Z,10.27
2022-12-03T11:34:18.994Z,8.27
2022-12-03T11:37:10.767Z,6.38
2022-12-03T11:39:49.551Z,7.00
2022-12-03T11:42:28.447Z,7.13
2022-12-03T11:45:04.236Z,8.85
2022-12-03T11:47:40.042Z,8.48
2022-12-03T11:50:22.116Z,6.53
2022-12-03T11:53:07.691Z,6.03
2022-12-03T11:55:40.605Z,7.68
2022-12-03T11:58:18.583Z,9.77
2022-12-03T12:00:52.473Z,7.45
2022-12-03T12:03:25.382Z,9.38
2022-12-03T12:06:11.570Z,8.45
2022-12-03T12:08:40.821Z,11.05
2022-12-03T12:11:19.712Z,11.48
2022-12-03T12:13:51.473Z,10.20
2022-12-03T12:16:39.803Z,13.73
2022-12-03T12:19:29.415Z,9.18
2022-12-03T12:22:17.271Z,13.43
2022-12-03T12:24:52.676Z,11.15
2022-12-03T12:27:30.226Z,12.40
2022-12-03T12:30:06.486Z,11.80
2022-12-03T12:32:47.312Z,12.65
2022-12-03T12:35:19.918Z,11.52
2022-12-03T12:38:00.185Z,10.60
2022-12-03T12:40:30.008Z,12.02
2022-12-03T12:43:08.226Z,10.77
2022-12-03T12:45:41.550Z,10.00
2022-12-03T12:48:21.428Z,10.68
2022-12-03T12:50:57.636Z,9.95
2022-12-03T12:53:31.370Z,10.35
2022-12-03T12:56:13.537Z,8.90
2022-12-03T12:58:41.850Z,7.68
2022-12-03T13:01:16.046Z,13.23
2022-12-03T13:03:42.786Z,11.10
2022-12-03T13:06:14.373Z,11.13
2022-12-03T13:08:45.352Z,15.13
2022-12-03T13:11:34.424Z,14.38
2022-12-03T13:14:20.990Z,11.35
2022-12-03T13:16:49.162Z,12.25
2022-12-03T13:19:27.488Z,15.68
2022-12-03T13:22:00.301Z,17.65
2022-12-03T13:24:30.297Z,14.30
2022-12-03T13:26:57.404Z,12.10
2022-12-03T13:29:25.969Z,13.13
2022-12-03T13:31:59.023Z,13.95
2022-12-03T13:34:28.169Z,17.40
2022-12-03T13:36:58.470Z,16.05
2022-12-03T13:39:32.316Z,17.40
2022-12-03T13:42:38.747Z,19.17
2022-12-03T13:45:17.563Z,14.63
2022-12-03T13:47:48.674Z,14.88
2022-12-03T13:50:37.085Z,16.75
2022-12-03T13:53:18.871Z,21.25
2022-12-03T13:55:47.919Z,15.98
2022-12-03T13:58:14.701Z,16.58
2022-12-03T14:00:41.539Z,13.95
2022-12-03T14:03:08.753Z,18.08
2022-12-03T14:05:35.478Z,17.73
2022-12-03T14:08:02.855Z,17.67
2022-12-03T14:10:29.909Z,17.98
2022-12-03T14:12:57.225Z,17.70
2022-12-03T14:15:25.005Z,23.58
2022-12-03T14:17:52.019Z,25.15
2022-12-03T14:20:19.507Z,19.77
2022-12-03T14:22:46.304Z,16.67
2022-12-03T14:25:13.038Z,19.75
2022-12-03T14:27:39.777Z,17.65
2022-12-03T14:30:07.317Z,20.90
2022-12-03T14:32:34.061Z,18.88
2022-12-03T14:35:03.966Z,21.48
2022-12-03T14:37:35.146Z,22.83
2022-12-03T14:40:03.759Z,20.80
2022-12-03T14:42:30.524Z,26.70
2022-12-03T14:44:57.664Z,20.80
2022-12-03T14:47:24.572Z,16.90
2022-12-03T14:49:52.369Z,18.15
2022-12-03T14:52:19.895Z,18.40
2022-12-03T14:54:46.792Z,21.95
2022-12-03T14:57:14.665Z,20.40
2022-12-03T14:59:42.271Z,19.73
2022-12-03T15:02:10.223Z,19.35
2022-12-03T15:04:38.162Z,17.50
2022-12-03T15:07:05.864Z,18.98
2022-12-03T15:09:32.614Z,19.33
2022-12-03T15:12:00.219Z,19.80
2022-12-03T15:14:27.209Z,22.33
2022-12-03T15:16:53.988Z,23.45
2022-12-03T15:19:20.752Z,23.55
2022-12-03T15:21:47.656Z,23.10
2022-12-03T15:24:14.460Z,24.20
2022-12-03T15:26:41.185Z,29.35
2022-12-03T15:29:08.002Z,26.17
2022-12-03T15:31:34.924Z,32.35
2022-12-03T15:34:01.796Z,32.63
2022-12-03T15:36:28.569Z,29.05
2022-12-03T15:38:55.310Z,23.77
2022-12-03T15:41:24.241Z,23.35
2022-12-03T15:43:52.542Z,23.88
2022-12-03T15:46:22.777Z,26.13
2022-12-03T15:48:49.704Z,28.55
2022-12-03T15:51:16.544Z,23.50
2022-12-03T15:53:43.650Z,26.52
2022-12-03T15:56:12.118Z,23.02
2022-12-03T15:58:39.880Z,21.77
2022-12-03T16:01:07.336Z,22.73
2022-12-03T16:03:34.208Z,25.55
2022-12-03T16:06:00.968Z,26.33
2022-12-03T16:08:27.682Z,27.23
2022-12-03T16:10:54.480Z,24.50
2022-12-03T16:13:21.293Z,23.63
2022-12-03T16:15:48.190Z,23.60
2022-12-03T16:18:15.017Z,23.88
2022-12-03T16:20:41.952Z,29.13
2022-12-03T16:23:08.811Z,27.73
2022-12-03T16:25:35.578Z,27.58
2022-12-03T16:28:02.434Z,27.80
2022-12-03T16:30:29.706Z,30.50
2022-12-03T16:32:56.591Z,30.98
2022-12-03T16:35:23.470Z,32.75
2022-12-03T16:37:50.224Z,32.83
2022-12-03T16:40:17.053Z,33.33
2022-12-03T16:42:43.843Z,30.73
2022-12-03T16:45:10.993Z,27.67
2022-12-03T16:47:37.953Z,26.95
2022-12-03T16:50:07.790Z,27.52
2022-12-03T16:52:35.438Z,16.95
2022-12-03T16:55:02.281Z,21.15
2022-12-03T16:57:33.360Z,17.88
2022-12-03T17:00:01.093Z,20.40
2022-12-03T17:02:28.021Z,22.52
2022-12-03T17:04:54.932Z,22.17
2022-12-03T17:07:21.836Z,19.83
2022-12-03T17:09:49.090Z,17.50
2022-12-03T17:12:16.027Z,16.13
2022-12-03T17:14:42.932Z,12.57
2022-12-03T17:17:09.766Z,16.70
2022-12-03T17:19:36.657Z,18.35
2022-12-03T17:22:03.466Z,17.65
2022-12-03T17:24:30.785Z,21.33
2022-12-03T17:26:57.559Z,16.25
2022-12-03T17:29:24.387Z,20.13
2022-12-03T17:31:51.173Z,19.70
2022-12-03T17:34:17.955Z,16.42
2022-12-03T17:36:44.746Z,20.25
2022-12-03T17:39:11.517Z,17.88
2022-12-03T17:41:38.249Z,19.30
2022-12-03T17:44:10.218Z,22.83
2022-12-03T17:46:38.349Z,22.65
2022-12-03T17:49:05.277Z,22.27
2022-12-03T17:51:32.080Z,18.83
2022-12-03T17:54:00.716Z,17.58
2022-12-03T17:56:27.478Z,19.83
2022-12-03T17:58:54.273Z,19.27
2022-12-03T18:01:21.196Z,20.17
2022-12-03T18:03:48.012Z,17.10
2022-12-03T18:06:14.797Z,16.55
2022-12-03T18:08:41.576Z,16.73
2022-12-03T18:11:08.458Z,15.38
2022-12-03T18:13:35.207Z,13.98
2022-12-03T18:16:02.119Z,18.92
2022-12-03T18:18:28.876Z,22.00
2022-12-03T18:20:55.558Z,20.23
2022-12-03T18:23:22.299Z,21.25
2022-12-03T18:25:49.049Z,27.58
2022-12-03T18:28:16.145Z,20.70
2022-12-03T18:30:47.540Z,22.75
2022-12-03T18:33:17.519Z,20.58
2022-12-03T18:35:44.553Z,19.77
2022-12-03T18:38:15.645Z,21.48
2022-12-03T18:40:43.313Z,23.67
2022-12-03T18:43:19.138Z,21.80
2022-12-03T18:45:45.915Z,18.20
2022-12-03T18:48:14.520Z,18.48
2022-12-03T18:50:41.511Z,17.42
2022-12-03T18:53:16.855Z,20.85
2022-12-03T18:55:45.573Z,20.27
2022-12-03T18:58:12.722Z,15.98
2022-12-03T19:00:39.884Z,17.83
2022-12-03T19:03:07.011Z,14.43
2022-12-03T19:05:34.962Z,18.88
2022-12-03T19:08:02.350Z,12.65
2022-12-03T19:10:29.183Z,19.40
2022-12-03T19:12:55.907Z,13.50
2022-12-03T19:15:23.091Z,12.07
2022-12-03T19:17:50.010Z,17.63
2022-12-03T19:20:17.066Z,12.75
2022-12-03T19:22:43.814Z,13.90
2022-12-03T19:25:10.590Z,15.40
2022-12-03T19:27:37.378Z,13.90
2022-12-03T19:30:04.838Z,13.60
2022-12-03T19:32:31.649Z,13.02
2022-12-03T19:34:58.477Z,12.13
2022-12-03T19:37:25.202Z,12.10
2022-12-03T19:39:55.459Z,14.45
2022-12-03T19:42:22.445Z,18.30
2022-12-03T19:44:49.158Z,16.25
2022-12-03T19:47:15.956Z,14.48
2022-12-03T19:49:42.749Z,15.77
2022-12-03T19:52:09.539Z,14.65
2022-12-03T19:54:36.409Z,13.23
2022-12-03T19:57:03.317Z,16.08
2022-12-03T19:59:30.053Z,11.90
2022-12-03T20:01:56.908Z,12.15
2022-12-03T20:04:23.707Z,11.73
2022-12-03T20:06:50.508Z,10.25
2022-12-03T20:09:18.032Z,9.45
2022-12-03T20:11:45.943Z,11.80
2022-12-03T20:14:15.365Z,12.00
2022-12-03T20:16:42.738Z,12.93
2022-12-03T20:19:12.534Z,13.20
2022-12-03T20:21:39.564Z,10.40
2022-12-03T20:24:07.166Z,8.85
2022-12-03T20:26:34.601Z,11.80
2022-12-03T20:29:01.599Z,13.48
2022-12-03T20:31:30.613Z,13.82
2022-12-03T20:33:59.804Z,10.45
2022-12-03T20:36:28.156Z,8.65
2022-12-03T20:38:59.828Z,7.63
2022-12-03T20:41:28.304Z,9.20
2022-12-03T20:43:55.228Z,7.43
2022-12-03T20:46:25.841Z,9.13
2022-12-03T20:48:54.151Z,5.53
2022-12-03T20:51:23.272Z,5.65
2022-12-03T20:53:50.111Z,5.85
2022-12-03T20:56:20.342Z,7.93
2022-12-03T20:58:50.278Z,6.95
2022-12-03T21:01:22.135Z,8.13
2022-12-03T21:03:49.970Z,5.43
2022-12-03T21:06:17.235Z,8.00
2022-12-03T21:08:44.756Z,5.93
2022-12-03T21:11:18.265Z,7.53
2022-12-03T21:13:47.620Z,6.78
2022-12-03T21:16:29.847Z,10.07
2022-12-03T21:19:07.390Z,10.52
2022-12-03T21:21:35.570Z,7.07
2022-12-03T21:24:02.387Z,7.25
2022-12-03T21:26:29.217Z,6.28
2022-12-03T21:28:56.143Z,6.93
2022-12-03T21:31:25.886Z,8.68
2022-12-03T21:33:54.396Z,8.50
2022-12-03T21:36:21.610Z,8.32
2022-12-03T21:38:48.781Z,8.93
2022-12-03T21:41:15.903Z,7.63
2022-12-03T21:43:43.406Z,7.68
2022-12-03T21:47:10.255Z,5.60
2022-12-03T21:49:24.885Z,8.98
2022-12-03T21:51:51.862Z,9.60
2022-12-03T21:54:19.060Z,9.65
2022-12-03T21:56:45.816Z,9.40
2022-12-03T21:59:12.619Z,11.45
2022-12-03T22:01:42.852Z,8.68
2022-12-03T22:04:13.647Z,11.13
2022-12-03T22:06:40.404Z,12.02
2022-12-03T22:09:07.243Z,9.95
2022-12-03T22:11:33.990Z,9.93
2022-12-03T22:14:00.946Z,10.88
2022-12-03T22:16:27.701Z,9.10
2022-12-03T22:18:54.613Z,10.75
2022-12-03T22:21:46.539Z,10.88
2022-12-03T22:24:39.416Z,11.60
2022-12-03T22:27:06.279Z,7.60
2022-12-03T22:29:33.139Z,9.15
2022-12-03T22:31:59.901Z,8.95
2022-12-03T22:34:26.673Z,8.85
2022-12-03T22:36:53.460Z,8.30
2022-12-03T22:39:20.197Z,9.50
2022-12-03T22:42:05.740Z,10.82
2022-12-03T22:44:36.580Z,12.52
2022-12-03T22:47:03.766Z,10.45
2022-12-03T22:49:30.513Z,11.75
2022-12-03T22:51:57.300Z,10.23
2022-12-03T22:54:24.446Z,11.65
2022-12-03T22:56:51.219Z,22.88
2022-12-03T22:59:17.965Z,27.35
2022-12-03T23:01:44.781Z,15.85
2022-12-03T23:04:12.257Z,15.57
2022-12-03T23:06:39.493Z,11.63
2022-12-03T23:09:08.005Z,10.23
2022-12-03T23:11:35.315Z,5.32
2022-12-03T23:14:02.343Z,6.18
2022-12-03T23:16:31.739Z,8.90
2022-12-03T23:19:00.258Z,5.43
2022-12-03T23:21:30.749Z,7.65
2022-12-03T23:23:59.258Z,7.25
2022-12-03T23:26:26.321Z,5.05
2022-12-03T23:28:53.165Z,8.57
2022-12-03T23:31:21.179Z,10.65
2022-12-03T23:33:48.063Z,12.00
2022-12-03T23:36:15.470Z,8.00
2022-12-03T23:38:42.441Z,11.13
2022-12-03T23:41:11.915Z,14.75
2022-12-03T23:43:39.117Z,10.60
2022-12-03T23:46:20.076Z,15.75
2022-12-03T23:48:46.925Z,12.13
2022-12-03T23:51:16.664Z,13.02
2022-12-03T23:53:43.601Z,9.20
2022-12-03T23:56:12.971Z,9.48
2022-12-03T23:58:40.002Z,12.23
